Time;durP1;ratioP1;P1;durP2;ratioP2;P2;SDS_P1;SDS_P2;PMS_P1;PMS_P2;Temp;Humidity;BMP_temperature;BMP_pressure;BME280_temperature;BME280_humidity;BME280_pressure;Samples;Min_cycle;Max_cycle;Signal;HPM_P1;HPM_P2
2022/04/18 00:00:27;;;;;;;37.05;20.13;;;;;;;6.15;71.08;102017.84;4974358;28;20027;-83
2022/04/18 00:02:53;;;;;;;34.70;20.30;;;;;;;6.12;71.47;102012.66;4966604;28;20517;-83
2022/04/18 00:05:18;;;;;;;39.45;20.80;;;;;;;6.09;70.23;102017.75;4967254;28;20038;-84
2022/04/18 00:07:43;;;;;;;34.95;20.13;;;;;;;6.02;68.46;102018.50;4969327;28;20097;-84
2022/04/18 00:10:09;;;;;;;34.70;20.40;;;;;;;6.01;70.82;102024.50;4976923;28;20027;-83
2022/04/18 00:12:35;;;;;;;33.80;20.52;;;;;;;5.97;71.18;102019.31;4966661;28;20030;-84
2022/04/18 00:15:01;;;;;;;34.60;19.92;;;;;;;5.89;70.07;102014.91;4967761;28;20025;-84
2022/04/18 00:17:26;;;;;;;37.45;19.75;;;;;;;5.86;71.32;102012.28;4965336;28;20033;-84
2022/04/18 00:19:51;;;;;;;40.05;19.83;;;;;;;5.80;68.48;102014.72;4967820;28;20026;-83
2022/04/18 00:22:17;;;;;;;36.80;20.52;;;;;;;5.79;71.71;102014.75;4969279;28;20042;-84
2022/04/18 00:24:42;;;;;;;52.15;19.58;;;;;;;5.80;71.66;102013.91;4967567;28;20034;-84
2022/04/18 00:27:07;;;;;;;41.05;17.88;;;;;;;5.80;68.15;102011.31;5001690;28;20121;-84
2022/04/18 00:29:33;;;;;;;46.58;18.38;;;;;;;5.83;67.81;102007.06;4973356;28;20034;-84
2022/04/18 00:31:59;;;;;;;42.10;18.02;;;;;;;5.89;69.99;102007.19;4966103;28;20033;-84
2022/04/18 00:34:24;;;;;;;39.17;17.77;;;;;;;5.92;70.86;102004.69;4997613;28;20038;-84
2022/04/18 00:36:49;;;;;;;38.97;17.73;;;;;;;5.94;69.54;102007.25;4966841;28;20350;-83
2022/04/18 00:39:14;;;;;;;37.93;17.13;;;;;;;5.90;68.93;101998.63;4965117;28;20293;-83
2022/04/18 00:41:40;;;;;;;36.17;17.77;;;;;;;5.91;70.14;101996.94;4968691;28;20846;-84
2022/04/18 00:44:05;;;;;;;32.88;16.48;;;;;;;5.89;67.82;102003.75;4967039;28;20031;-84
2022/04/18 00:46:30;;;;;;;33.83;16.15;;;;;;;5.88;66.98;102000.31;4966497;28;20488;-84
2022/04/18 00:48:56;;;;;;;32.50;17.20;;;;;;;5.86;70.35;101991.69;4966514;28;20120;-84
2022/04/18 00:51:24;;;;;;;30.50;15.65;;;;;;;5.85;70.51;102000.25;4965897;28;20137;-84
2022/04/18 00:53:53;;;;;;;33.88;16.65;;;;;;;5.79;71.69;102002.75;4965797;28;20477;-83
2022/04/18 00:56:19;;;;;;;30.75;16.10;;;;;;;5.74;72.20;102001.78;4965119;28;20038;-84
2022/04/18 00:58:46;;;;;;;30.40;15.45;;;;;;;5.67;69.61;102001.66;4966884;28;20404;-83
2022/04/18 01:01:13;;;;;;;26.20;15.38;;;;;;;5.61;71.67;101999.88;4967078;28;20079;-84
2022/04/18 01:03:38;;;;;;;31.30;16.63;;;;;;;5.56;72.60;101994.69;4969214;28;20037;-83
2022/04/18 01:06:04;;;;;;;27.63;16.50;;;;;;;5.52;73.10;101997.19;4970396;28;20397;-84
2022/04/18 01:08:37;;;;;;;25.67;16.02;;;;;;;5.45;72.48;101998.81;4965912;28;20042;-84
2022/04/18 01:11:06;;;;;;;27.83;15.43;;;;;;;5.42;73.02;101995.31;4965034;28;20445;-83
2022/04/18 01:13:46;;;;;;;28.75;15.95;;;;;;;5.36;73.23;101993.50;4966465;28;20046;-83
2022/04/18 01:16:12;;;;;;;28.15;15.57;;;;;;;5.31;73.79;101994.28;4966854;28;20086;-83
2022/04/18 01:18:38;;;;;;;29.10;15.82;;;;;;;5.25;73.65;101989.91;4966188;28;20101;-83
2022/04/18 01:21:08;;;;;;;27.17;14.93;;;;;;;5.20;73.86;101991.50;4965577;28;20496;-84
2022/04/18 01:23:33;;;;;;;26.77;14.88;;;;;;;5.14;73.72;101992.28;4965907;28;20554;-83
2022/04/18 01:29:01;;;;;;;25.90;14.63;;;;;;;5.10;75.00;101992.22;4969396;28;20052;-83
2022/04/18 01:31:32;;;;;;;29.02;15.50;;;;;;;5.06;74.45;101992.97;4965863;28;20054;-83
2022/04/18 01:33:58;;;;;;;31.95;14.73;;;;;;;5.03;75.21;101986.09;4966662;28;20031;-83
2022/04/18 01:36:27;;;;;;;25.38;14.95;;;;;;;4.99;75.23;101986.00;4965530;28;20030;-83
2022/04/18 01:38:53;;;;;;;23.50;14.32;;;;;;;4.94;74.23;101996.22;4965459;28;20113;-83
2022/04/18 01:41:19;;;;;;;24.95;14.57;;;;;;;4.87;74.28;101990.94;4954337;28;20019;-83
2022/04/18 01:43:44;;;;;;;26.55;14.43;;;;;;;4.84;75.19;101988.31;4971477;28;20033;-83
2022/04/18 01:46:09;;;;;;;24.05;14.45;;;;;;;4.82;73.34;101997.69;4964558;28;20400;-83
2022/04/18 01:48:35;;;;;;;25.13;13.75;;;;;;;4.78;74.74;101994.19;4966084;28;20373;-83
2022/04/18 01:51:00;;;;;;;24.70;14.02;;;;;;;4.74;75.32;101989.84;4965704;28;20026;-83
2022/04/18 01:53:27;;;;;;;22.42;13.85;;;;;;;4.67;74.62;101986.28;4965223;28;20239;-83
2022/04/18 01:55:53;;;;;;;22.23;13.32;;;;;;;4.65;75.07;101987.09;4999219;28;20034;-83
2022/04/18 01:58:18;;;;;;;23.05;13.45;;;;;;;4.60;75.38;101979.31;4970659;28;20034;-83
2022/04/18 02:00:43;;;;;;;26.35;14.27;;;;;;;4.56;76.29;101982.66;4966337;28;20439;-83
2022/04/18 02:03:09;;;;;;;20.73;12.80;;;;;;;4.53;76.24;101980.03;4964997;28;20049;-83
2022/04/18 02:05:34;;;;;;;24.38;13.10;;;;;;;4.50;75.96;101974.00;4965346;28;20027;-83
2022/04/18 02:07:59;;;;;;;24.40;13.93;;;;;;;4.47;76.23;101977.34;4965245;28;20056;-83
2022/04/18 02:10:24;;;;;;;23.58;13.10;;;;;;;4.43;76.83;101970.44;4996453;28;20435;-83
2022/04/18 02:12:50;;;;;;;22.95;12.77;;;;;;;4.40;76.69;101972.94;4977161;28;20554;-83
2022/04/18 02:15:15;;;;;;;27.13;14.30;;;;;;;4.38;77.12;101974.59;4974172;28;20387;-83
2022/04/18 02:17:41;;;;;;;23.73;12.85;;;;;;;4.35;76.70;101979.69;4981567;28;20034;-83
2022/04/18 02:20:07;;;;;;;24.13;13.43;;;;;;;4.33;77.38;101971.94;4971807;28;20026;-83
2022/04/18 02:22:33;;;;;;;21.25;12.60;;;;;;;4.28;76.96;101968.44;4975838;28;20491;-83
2022/04/18 02:24:58;;;;;;;22.95;13.10;;;;;;;4.26;76.99;101966.66;4976748;28;20547;-83
2022/04/18 02:27:24;;;;;;;25.50;13.40;;;;;;;4.24;77.00;101970.88;4976122;28;20026;-83
2022/04/18 02:29:49;;;;;;;22.27;12.50;;;;;;;4.22;77.93;101963.19;4966062;28;20026;-83
2022/04/18 02:35:01;;;;;;;23.58;13.40;;;;;;;4.19;78.19;101975.06;4965004;28;20085;-83
2022/04/18 02:37:26;;;;;;;23.88;12.95;;;;;;;4.15;78.05;101968.16;4963980;28;20041;-84
2022/04/18 02:39:54;;;;;;;25.58;13.45;;;;;;;4.10;77.89;101962.91;4964344;28;20019;-83
2022/04/18 02:42:19;;;;;;;22.23;13.35;;;;;;;4.07;78.01;101959.44;4965076;28;20052;-83
2022/04/18 02:44:46;;;;;;;22.88;13.55;;;;;;;4.07;78.35;101962.00;4965095;28;20404;-83
2022/04/18 02:47:12;;;;;;;25.00;13.35;;;;;;;4.01;78.06;101954.19;4965272;28;20037;-83
2022/04/18 02:49:37;;;;;;;24.05;13.45;;;;;;;3.96;77.83;101957.50;4963222;28;20026;-83
2022/04/18 02:52:04;;;;;;;23.00;12.77;;;;;;;3.90;77.69;101957.38;4965330;28;20105;-84
2022/04/18 02:54:30;;;;;;;28.95;12.90;;;;;;;3.90;78.10;101957.38;4995054;28;20158;-84
2022/04/18 02:56:55;;;;;;;23.10;12.45;;;;;;;3.84;77.88;101951.22;4965747;28;20046;-83
2022/04/18 02:59:21;;;;;;;23.20;12.80;;;;;;;3.83;78.12;101955.50;4966278;28;20077;-83
2022/04/18 03:01:46;;;;;;;25.20;12.77;;;;;;;3.79;78.32;101942.59;4982225;28;20305;-83
2022/04/18 03:04:11;;;;;;;24.08;12.15;;;;;;;3.74;78.40;101939.94;4968107;28;20065;-84
2022/04/18 03:06:37;;;;;;;21.98;12.07;;;;;;;3.70;78.20;101935.56;4963242;28;20038;-83
2022/04/18 03:09:02;;;;;;;21.90;11.75;;;;;;;3.69;78.35;101933.81;4962867;28;20022;-84
2022/04/18 03:11:27;;;;;;;21.38;11.85;;;;;;;3.63;76.99;101932.81;4964451;28;20066;-84
2022/04/18 03:13:53;;;;;;;21.55;11.27;;;;;;;3.64;78.25;101935.44;4964986;28;20073;-83
2022/04/18 03:16:18;;;;;;;23.55;11.65;;;;;;;3.61;78.85;101937.94;4965418;28;20041;-83
2022/04/18 03:18:44;;;;;;;22.25;11.68;;;;;;;3.59;78.98;101934.47;4994889;28;20265;-84
2022/04/18 03:21:10;;;;;;;20.35;10.85;;;;;;;3.56;78.62;101929.25;4964554;28;20397;-84
2022/04/18 03:23:35;;;;;;;19.85;10.88;;;;;;;3.55;78.89;101932.66;4963729;28;20051;-83
2022/04/18 03:26:03;;;;;;;23.85;10.98;;;;;;;3.52;79.31;101933.47;4964526;28;20034;-84
2022/04/18 03:28:28;;;;;;;21.95;11.48;;;;;;;3.52;79.21;101932.59;4963730;28;20101;-83
2022/04/18 03:30:53;;;;;;;20.53;10.77;;;;;;;3.50;79.12;101934.25;4963495;28;20394;-83
2022/04/18 03:33:21;;;;;;;22.67;10.95;;;;;;;3.50;79.58;101926.56;4964070;28;20286;-83
2022/04/18 03:41:15;;;;;;;19.87;10.20;;;;;;;3.43;79.40;101927.25;4965896;28;20551;-83
2022/04/18 03:43:40;;;;;;;19.75;10.32;;;;;;;3.39;79.45;101933.16;4969687;28;20031;-83
2022/04/18 03:46:05;;;;;;;18.52;10.00;;;;;;;3.35;79.60;101927.06;4968435;28;20078;-83
2022/04/18 03:48:31;;;;;;;17.88;10.18;;;;;;;3.32;79.57;101926.16;4970751;28;20049;-83
2022/04/18 03:50:57;;;;;;;19.48;10.30;;;;;;;3.30;79.86;101926.09;4969941;28;20035;-83
2022/04/18 03:53:22;;;;;;;22.98;10.80;;;;;;;3.31;80.34;101935.53;4972660;28;20058;-84
2022/04/18 03:55:48;;;;;;;21.15;10.10;;;;;;;3.27;79.54;101928.63;4973900;28;20033;-83
2022/04/18 03:58:16;;;;;;;17.98;10.02;;;;;;;3.25;79.71;101924.28;4974046;28;20109;-83
2022/04/18 04:00:42;;;;;;;20.63;10.60;;;;;;;3.23;78.83;101928.47;4973882;28;20014;-83
2022/04/18 04:03:11;;;;;;;17.90;9.80;;;;;;;3.20;79.26;101924.19;4973784;28;20035;-83
2022/04/18 04:05:38;;;;;;;20.40;10.23;;;;;;;3.16;79.71;101922.34;4972950;28;20029;-83
2022/04/18 04:08:04;;;;;;;19.60;10.20;;;;;;;3.15;80.13;101924.03;4973363;28;20109;-83
2022/04/18 04:10:29;;;;;;;19.23;10.23;;;;;;;3.12;80.80;101921.44;4973584;28;20396;-83
2022/04/18 04:12:55;;;;;;;19.83;10.35;;;;;;;3.12;80.54;101921.44;4968820;28;20042;-83
2022/04/18 04:15:21;;;;;;;18.20;9.82;;;;;;;3.09;80.35;101918.78;4973558;28;20041;-83
2022/04/18 04:17:46;;;;;;;19.85;10.20;;;;;;;3.08;80.60;101918.75;4973175;28;20109;-83
2022/04/18 04:20:11;;;;;;;18.42;10.27;;;;;;;3.05;80.21;101919.53;4972110;28;20027;-83
2022/04/18 04:22:36;;;;;;;22.63;10.05;;;;;;;3.03;80.74;101912.66;4977454;28;20395;-83
2022/04/18 04:25:02;;;;;;;21.15;10.20;;;;;;;2.99;80.60;101916.84;4975471;28;20066;-83
2022/04/18 04:27:30;;;;;;;21.17;10.50;;;;;;;2.94;79.23;101914.97;4976587;28;20108;-83
2022/04/18 04:29:56;;;;;;;19.33;9.63;;;;;;;2.95;80.12;101915.00;4973254;28;20159;-83
2022/04/18 04:32:21;;;;;;;21.23;10.35;;;;;;;2.94;81.17;101920.09;4973158;28;20065;-83
2022/04/18 04:34:47;;;;;;;18.48;10.00;;;;;;;2.93;80.92;101924.38;4970989;28;20026;-83
2022/04/18 04:37:12;;;;;;;21.30;10.25;;;;;;;2.93;81.32;101920.94;4971340;28;20029;-83
2022/04/18 04:39:37;;;;;;;20.13;10.07;;;;;;;2.94;81.94;101918.41;4976097;28;20033;-83
2022/04/18 04:42:03;;;;;;;18.80;10.10;;;;;;;2.93;82.17;101920.94;4972317;28;20035;-83
2022/04/18 04:44:29;;;;;;;19.38;10.45;;;;;;;2.92;81.52;101920.09;4972757;28;20381;-83
2022/04/18 04:46:54;;;;;;;18.60;8.97;;;;;;;2.90;80.71;101915.75;4974357;28;20028;-83
2022/04/18 04:49:19;;;;;;;19.00;10.10;;;;;;;2.92;81.96;101916.66;4979579;28;20297;-83
2022/04/18 04:51:44;;;;;;;19.98;9.70;;;;;;;2.92;81.62;101925.19;4972969;28;20325;-83
2022/04/18 04:54:10;;;;;;;17.58;9.93;;;;;;;2.94;81.89;101917.53;4962174;28;20485;-83
2022/04/18 04:56:35;;;;;;;18.77;9.90;;;;;;;2.94;80.87;101927.78;4974704;28;20081;-83
2022/04/18 04:59:03;;;;;;;18.73;10.43;;;;;;;2.97;82.57;101928.72;4970388;28;20254;-84
2022/04/18 05:01:29;;;;;;;18.67;10.55;;;;;;;3.00;81.78;101931.34;4971389;28;20338;-83
2022/04/18 05:03:54;;;;;;;18.50;9.65;;;;;;;3.02;82.14;101931.41;4972440;28;20771;-83
2022/04/18 05:06:19;;;;;;;18.27;9.52;;;;;;;3.01;81.24;101922.84;5002641;28;20027;-84
2022/04/18 05:08:45;;;;;;;18.75;9.52;;;;;;;3.04;82.29;101933.19;4971553;28;20046;-84
2022/04/18 05:11:10;;;;;;;17.80;9.77;;;;;;;3.05;81.05;101934.06;4972427;28;20058;-84
2022/04/18 05:13:35;;;;;;;18.38;9.38;;;;;;;3.10;80.47;101932.47;4976852;28;20022;-84
2022/04/18 05:16:01;;;;;;;18.90;9.55;;;;;;;3.13;81.98;101941.09;4972875;28;20027;-83
2022/04/18 05:18:27;;;;;;;19.92;10.00;;;;;;;3.16;82.68;101940.28;4972114;28;20171;-84
2022/04/18 05:20:52;;;;;;;20.98;10.70;;;;;;;3.20;82.63;101941.25;4963882;28;20039;-84
2022/04/18 05:23:21;;;;;;;19.30;10.25;;;;;;;3.22;82.03;101942.13;4973388;28;20034;-84
2022/04/18 05:25:46;;;;;;;18.17;9.90;;;;;;;3.27;82.29;101943.13;4970737;28;20519;-83
2022/04/18 05:28:12;;;;;;;18.13;9.63;;;;;;;3.30;81.29;101945.75;4974044;28;20065;-83
2022/04/18 05:30:37;;;;;;;17.58;9.93;;;;;;;3.33;82.48;101954.38;4972110;28;20030;-83
2022/04/18 05:33:03;;;;;;;19.92;9.77;;;;;;;3.38;83.01;101950.22;4970144;28;20191;-84
2022/04/18 05:35:29;;;;;;;20.25;10.02;;;;;;;3.44;82.04;101941.81;5002960;28;20027;-84
2022/04/18 05:37:54;;;;;;;21.27;10.00;;;;;;;3.51;80.28;101939.41;4973861;28;20408;-84
2022/04/18 05:40:20;;;;;;;20.48;11.05;;;;;;;3.65;80.65;101939.72;4971846;28;20030;-83
2022/04/18 05:42:45;;;;;;;18.58;10.18;;;;;;;3.80;80.75;101941.75;4970416;28;20448;-83
2022/04/18 05:45:10;;;;;;;25.45;10.40;;;;;;;3.87;79.04;101947.06;4971746;28;20030;-83
2022/04/18 05:47:36;;;;;;;18.50;10.18;;;;;;;4.01;81.03;101946.47;4971479;28;20022;-84
2022/04/18 05:50:02;;;;;;;22.42;10.18;;;;;;;4.08;77.93;101940.63;4980204;28;20080;-84
2022/04/18 05:52:27;;;;;;;19.38;9.90;;;;;;;4.19;78.03;101946.84;4954150;28;20401;-84
2022/04/18 05:54:53;;;;;;;19.38;9.68;;;;;;;4.27;77.03;101937.59;4970353;28;20484;-83
2022/04/18 05:57:21;;;;;;;17.73;9.82;;;;;;;4.35;75.46;101931.78;4966866;28;20117;-84
2022/04/18 05:59:47;;;;;;;16.38;9.27;;;;;;;4.52;77.03;101931.22;4997310;28;20030;-85
2022/04/18 06:02:12;;;;;;;17.27;9.07;;;;;;;4.60;74.31;101932.22;4971442;28;20088;-85
2022/04/18 06:04:39;;;;;;;16.65;9.43;;;;;;;4.72;72.46;101935.88;4975962;28;20121;-86
2022/04/18 06:07:05;;;;;;;16.35;8.68;;;;;;;4.86;72.03;101932.69;4974587;28;20115;-85
2022/04/18 06:09:30;;;;;;;16.63;8.55;;;;;;;5.02;70.28;101938.13;5003463;28;20109;-85
2022/04/18 06:11:56;;;;;;;16.00;8.38;;;;;;;5.20;69.83;101940.09;4972693;28;20046;-84
2022/04/18 06:14:21;;;;;;;17.03;8.70;;;;;;;5.36;69.52;101954.06;4979132;28;20077;-85
2022/04/18 06:16:49;;;;;;;18.77;9.20;;;;;;;5.46;68.75;101948.22;4977407;28;20359;-85
2022/04/18 06:19:14;;;;;;;15.23;8.93;;;;;;;5.60;68.52;101946.72;4972216;28;20073;-84
2022/04/18 06:21:40;;;;;;;17.58;8.75;;;;;;;5.72;68.22;101941.75;5004149;28;20061;-84
2022/04/18 06:24:06;;;;;;;16.80;8.80;;;;;;;5.83;68.88;101941.88;4973691;28;20034;-84
2022/04/18 06:26:31;;;;;;;18.08;9.32;;;;;;;5.94;68.06;101950.63;4983906;28;20105;-85
2022/04/18 06:28:57;;;;;;;17.15;8.82;;;;;;;6.05;68.10;101955.94;4972540;28;20113;-83
2022/04/18 06:31:23;;;;;;;19.17;9.68;;;;;;;6.17;73.24;101944.06;5006809;28;20061;-84
2022/04/18 06:33:48;;;;;;;18.85;9.20;;;;;;;6.38;68.65;101955.47;4974006;28;20058;-84
2022/04/18 06:36:13;;;;;;;17.03;8.97;;;;;;;6.61;71.81;101948.88;4979396;28;20022;-84
2022/04/18 06:38:39;;;;;;;14.53;8.57;;;;;;;6.88;69.83;101946.56;4999123;28;20336;-84
2022/04/18 06:41:04;;;;;;;17.38;9.00;;;;;;;7.03;65.99;101943.22;4973106;28;20797;-83
2022/04/18 06:43:30;;;;;;;16.58;8.65;;;;;;;7.22;65.04;101939.09;4970507;28;20193;-82
2022/04/18 06:45:55;;;;;;;16.42;8.45;;;;;;;7.48;64.96;101945.31;4982073;28;20054;-82
2022/04/18 06:48:20;;;;;;;16.98;8.88;;;;;;;7.75;67.51;101942.91;4972939;28;20035;-82
2022/04/18 06:50:46;;;;;;;17.05;9.43;;;;;;;8.19;67.65;101945.66;4980874;28;20428;-82
2022/04/18 06:53:12;;;;;;;14.00;8.23;;;;;;;8.67;63.85;101951.88;4972504;28;20464;-82
2022/04/18 06:58:21;;;;;;;14.80;7.40;;;;;;;10.42;58.97;101941.25;4970504;28;20093;-82
2022/04/18 07:00:47;;;;;;;13.30;7.88;;;;;;;10.80;55.87;101936.69;4975873;28;20023;-83
2022/04/18 07:03:12;;;;;;;12.07;7.53;;;;;;;11.10;57.16;101935.59;4969457;28;20069;-83
2022/04/18 07:05:40;;;;;;;12.13;7.55;;;;;;;11.76;56.26;101931.50;4970732;28;20277;-83
2022/04/18 07:08:06;;;;;;;12.43;7.25;;;;;;;12.55;52.34;101921.84;4972762;28;20105;-83
2022/04/18 07:10:31;;;;;;;12.55;7.53;;;;;;;13.29;50.07;101925.88;4973852;28;20452;-82
2022/04/18 07:12:56;;;;;;;11.83;7.57;;;;;;;13.64;47.17;101920.03;4975839;28;20022;-82
2022/04/18 07:15:22;;;;;;;14.97;8.30;;;;;;;13.68;51.70;101921.66;4970736;28;20317;-82
2022/04/18 07:17:47;;;;;;;13.50;8.20;;;;;;;13.62;54.65;101921.78;5001286;28;20321;-83
2022/04/18 07:20:12;;;;;;;14.77;7.85;;;;;;;13.96;51.80;101927.19;4970835;28;20284;-83
2022/04/18 07:22:39;;;;;;;12.13;7.05;;;;;;;14.31;50.02;101920.38;4970515;28;20031;-83
2022/04/18 07:25:05;;;;;;;13.65;6.78;;;;;;;14.79;43.20;101923.66;4976114;28;20066;-84
2022/04/18 07:27:30;;;;;;;14.93;7.43;;;;;;;14.91;46.54;101920.75;4983357;28;20061;-84
2022/04/18 07:29:56;;;;;;;11.63;7.45;;;;;;;14.93;45.28;101917.22;4974843;28;20403;-84
2022/04/18 07:32:21;;;;;;;13.02;7.40;;;;;;;14.91;42.78;101920.75;4978874;28;20041;-84
2022/04/18 07:34:47;;;;;;;14.07;7.87;;;;;;;14.68;47.07;101916.06;4980581;28;20062;-84
2022/04/18 07:37:12;;;;;;;12.95;7.80;;;;;;;14.54;50.40;101925.97;4973729;28;20321;-84
2022/04/18 07:39:38;;;;;;;12.57;7.90;;;;;;;14.50;45.79;101925.19;4978265;28;20030;-84
2022/04/18 07:42:03;;;;;;;13.93;7.63;;;;;;;14.56;48.73;101917.22;4983211;28;20089;-84
2022/04/18 07:44:29;;;;;;;10.52;7.30;;;;;;;14.98;45.39;101924.94;5002076;28;20032;-84
2022/04/18 07:46:55;;;;;;;11.23;6.78;;;;;;;15.42;43.87;101921.19;4964310;28;20033;-84
2022/04/18 07:49:20;;;;;;;12.68;7.32;;;;;;;15.60;44.39;101925.94;4983259;28;20500;-84
2022/04/18 07:51:46;;;;;;;14.07;7.30;;;;;;;15.81;45.80;101916.66;4979561;28;20034;-85
2022/04/18 07:54:19;;;;;;;13.60;7.25;;;;;;;15.84;44.34;101911.31;4976898;28;20457;-83
2022/04/18 07:56:44;;;;;;;10.97;7.00;;;;;;;15.83;42.80;101907.00;5002900;28;20396;-83
2022/04/18 07:59:10;;;;;;;12.48;7.47;;;;;;;15.82;41.76;101905.31;4974311;28;20023;-83
2022/04/18 08:01:36;;;;;;;12.10;7.07;;;;;;;15.87;46.74;101900.78;4969126;28;20035;-83
2022/04/18 08:04:02;;;;;;;10.73;7.22;;;;;;;16.40;42.41;101903.56;4975299;28;20018;-83
2022/04/18 08:06:28;;;;;;;12.15;7.43;;;;;;;17.14;41.16;101905.53;4973601;28;20043;-83
2022/04/18 08:08:54;;;;;;;12.50;7.70;;;;;;;17.95;40.48;101899.16;4980136;28;20030;-83
2022/04/18 08:11:20;;;;;;;10.68;6.93;;;;;;;18.64;36.56;101892.09;4980565;28;20049;-83
2022/04/18 08:13:46;;;;;;;9.63;7.30;;;;;;;19.46;40.45;101898.28;4973105;28;20037;-83
2022/04/18 08:16:12;;;;;;;10.10;6.20;;;;;;;20.16;33.15;101900.38;4985362;28;20034;-83
2022/04/18 08:18:39;;;;;;;10.02;6.05;;;;;;;20.97;37.23;101897.34;4977983;28;20026;-83
2022/04/18 08:21:06;;;;;;;8.32;5.60;;;;;;;21.50;30.18;101895.47;4981408;28;20018;-83
2022/04/18 08:23:32;;;;;;;8.25;5.50;;;;;;;22.07;32.06;101888.03;4976870;28;20467;-83
2022/04/18 08:25:57;;;;;;;8.93;5.78;;;;;;;22.39;31.61;101887.09;4977052;28;20566;-83
2022/04/18 08:28:23;;;;;;;7.95;5.60;;;;;;;22.65;30.11;101885.63;4972627;28;20081;-83
2022/04/18 08:30:48;;;;;;;8.43;5.30;;;;;;;22.69;33.00;101884.50;4974519;28;20499;-82
2022/04/18 08:33:13;;;;;;;8.53;6.07;;;;;;;22.43;28.23;101890.41;4971681;28;20026;-83
2022/04/18 08:35:39;;;;;;;10.67;6.10;;;;;;;22.14;30.58;101886.75;4986348;28;20492;-83
2022/04/18 08:38:04;;;;;;;12.30;6.22;;;;;;;21.97;30.34;101890.31;5004281;28;20065;-83
2022/04/18 08:40:30;;;;;;;8.13;5.50;;;;;;;21.88;30.41;101887.31;4973498;28;20173;-83
2022/04/18 08:42:56;;;;;;;7.95;5.68;;;;;;;21.75;28.67;101892.41;4974618;28;20373;-83
2022/04/18 08:45:24;;;;;;;6.97;5.40;;;;;;;21.94;28.63;101894.88;4976630;28;20054;-83
2022/04/18 08:53:25;;;;;;;9.80;5.68;;;;;;;21.80;31.67;101889.50;4971837;28;20181;-84
2022/04/18 08:55:50;;;;;;;8.98;5.88;;;;;;;21.55;28.09;101896.09;4983432;28;20037;-83
2022/04/18 08:58:15;;;;;;;9.20;5.93;;;;;;;21.38;27.07;101888.19;4981776;28;20030;-83
2022/04/18 09:00:41;;;;;;;7.60;5.47;;;;;;;21.34;28.53;101891.94;4972359;28;20022;-83
2022/04/18 09:03:06;;;;;;;8.38;6.10;;;;;;;21.14;27.94;101887.66;4973318;28;20035;-84
2022/04/18 09:05:36;;;;;;;7.72;5.80;;;;;;;21.13;32.29;101893.00;4976431;28;20030;-83
2022/04/18 09:08:05;;;;;;;8.25;5.95;;;;;;;21.15;30.34;101889.34;4973380;28;20031;-83
2022/04/18 09:10:30;;;;;;;9.25;6.57;;;;;;;21.10;28.67;101883.47;4983287;28;20039;-83
2022/04/18 09:13:09;;;;;;;11.60;6.13;;;;;;;21.21;32.99;101878.53;4972910;28;20026;-83
2022/04/18 09:15:51;;;;;;;7.57;6.20;;;;;;;21.12;29.88;101889.50;4978468;28;20035;-83
2022/04/18 09:18:19;;;;;;;10.45;6.50;;;;;;;21.20;27.94;101886.53;4972643;28;20031;-83
2022/04/18 09:20:49;;;;;;;8.50;6.07;;;;;;;21.23;29.34;101887.19;4972216;28;20027;-84
2022/04/18 09:23:28;;;;;;;11.10;6.45;;;;;;;21.25;32.23;101884.50;4970889;28;20018;-84
2022/04/18 09:26:03;;;;;;;13.43;6.70;;;;;;;21.17;29.35;101874.34;4971442;28;20034;-83
2022/04/18 09:28:34;;;;;;;8.07;5.85;;;;;;;21.26;30.33;101884.41;5017554;28;20443;-83
2022/04/18 09:31:04;;;;;;;10.48;6.00;;;;;;;21.20;31.67;101879.47;4980342;28;20026;-83
2022/04/18 09:33:32;;;;;;;10.65;6.18;;;;;;;21.27;27.96;101883.50;4977255;28;20109;-83
2022/04/18 09:36:06;;;;;;;11.10;6.50;;;;;;;21.16;28.90;101870.00;4977988;28;20382;-83
2022/04/18 09:38:36;;;;;;;10.00;6.70;;;;;;;21.10;29.06;101872.91;4972279;28;20033;-83
2022/04/18 09:41:01;;;;;;;8.50;6.03;;;;;;;21.08;27.49;101864.25;4972267;28;20046;-83
2022/04/18 09:43:40;;;;;;;8.48;5.97;;;;;;;20.96;29.65;101870.13;4977550;28;20030;-83
2022/04/18 09:46:07;;;;;;;9.35;6.00;;;;;;;20.94;28.01;101871.16;4968916;28;20026;-83
2022/04/18 09:48:33;;;;;;;12.57;5.90;;;;;;;21.01;28.38;101869.91;4976941;28;20033;-83
2022/04/18 09:51:10;;;;;;;9.43;5.78;;;;;;;21.22;28.04;101867.03;4977923;28;20142;-83
2022/04/18 09:53:40;;;;;;;9.50;6.13;;;;;;;20.99;26.94;101861.22;4973992;28;20035;-83
2022/04/18 09:56:07;;;;;;;9.25;5.90;;;;;;;20.92;27.51;101865.94;4971263;28;20034;-83
2022/04/18 09:58:33;;;;;;;8.52;6.15;;;;;;;20.86;27.43;101863.63;4972016;28;20018;-83
2022/04/18 10:01:02;;;;;;;8.68;6.25;;;;;;;20.64;27.58;101866.47;5002933;28;20030;-82
2022/04/18 10:03:27;;;;;;;9.70;6.28;;;;;;;20.72;28.80;101863.47;4988481;28;20060;-83
2022/04/18 10:05:55;;;;;;;9.75;6.75;;;;;;;20.57;28.26;101854.53;4984530;28;20038;-83
2022/04/18 10:08:21;;;;;;;10.80;6.07;;;;;;;20.33;26.98;101861.00;4971827;28;20029;-83
2022/04/18 10:10:47;;;;;;;10.65;6.35;;;;;;;19.78;27.90;101845.13;5003148;28;20019;-83
2022/04/18 10:13:16;;;;;;;11.70;6.45;;;;;;;19.38;28.76;101851.28;4971201;28;20097;-83
2022/04/18 10:15:41;;;;;;;7.43;5.47;;;;;;;19.39;30.34;101844.25;5001370;28;20035;-83
2022/04/18 10:18:10;;;;;;;9.77;6.45;;;;;;;19.50;29.82;101837.63;4964575;28;20030;-83
2022/04/18 10:20:54;;;;;;;10.50;6.60;;;;;;;19.72;29.41;101846.25;4979928;28;20619;-83
2022/04/18 10:23:32;;;;;;;;;;;;;;;19.79;32.05;101846.00;4970600;28;20397;-83
2022/04/18 10:26:20;;;;;;;10.13;6.90;;;;;;;19.57;29.31;101836.44;4966167;28;19918;-83
2022/04/18 10:28:48;;;;;;;9.43;6.60;;;;;;;19.27;30.25;101827.25;4976784;28;20034;-84
2022/04/18 10:31:20;;;;;;;9.43;6.30;;;;;;;19.21;29.46;101831.00;5002228;28;20030;-83
2022/04/18 10:33:45;;;;;;;8.55;5.90;;;;;;;19.31;31.16;101824.41;4978524;28;20075;-84
2022/04/18 10:36:12;;;;;;;10.88;6.32;;;;;;;19.25;30.88;101829.06;4970644;28;20057;-84
2022/04/18 10:38:41;;;;;;;9.98;6.78;;;;;;;19.24;31.72;101828.22;4971102;28;20506;-84
2022/04/18 10:41:45;;;;;;;9.85;6.25;;;;;;;19.36;31.90;101829.47;4981345;28;20034;-84
2022/04/18 10:44:12;;;;;;;8.90;6.15;;;;;;;19.35;30.74;101827.75;4971063;28;20026;-83
2022/04/18 10:46:56;;;;;;;9.90;6.57;;;;;;;19.21;29.76;101820.50;4970471;28;20027;-83
2022/04/18 10:49:27;;;;;;;10.90;6.50;;;;;;;18.91;27.48;101816.53;4968922;28;20038;-84
2022/04/18 10:51:53;;;;;;;15.63;6.45;;;;;;;18.71;27.94;101817.38;4970746;28;20547;-83
2022/04/18 10:54:25;;;;;;;10.85;6.28;;;;;;;18.72;30.53;101813.84;4973030;28;20031;-84
2022/04/18 10:56:53;;;;;;;9.43;6.07;;;;;;;18.77;29.27;101819.75;4974780;28;20520;-84
2022/04/18 10:59:23;;;;;;;11.93;6.45;;;;;;;18.69;29.76;101814.00;4969120;28;20081;-84
2022/04/18 11:01:49;;;;;;;12.38;6.43;;;;;;;18.77;28.84;101816.28;4974111;28;20044;-83
2022/04/18 11:04:15;;;;;;;10.85;6.60;;;;;;;18.84;28.71;101812.47;4980881;28;20069;-83
2022/04/18 11:06:41;;;;;;;12.65;5.80;;;;;;;19.04;30.84;101814.28;4974763;28;20480;-83
2022/04/18 11:09:13;;;;;;;9.25;5.93;;;;;;;19.22;28.60;101810.81;4969985;28;20042;-83
2022/04/18 11:12:06;;;;;;;9.48;6.20;;;;;;;19.29;30.81;101805.22;4970869;28;20062;-83
2022/04/18 11:14:37;;;;;;;10.65;6.43;;;;;;;19.27;29.54;101800.94;4967191;28;20042;-83
2022/04/18 11:17:03;;;;;;;9.20;6.50;;;;;;;19.18;26.32;101801.34;4963949;28;20392;-83
2022/04/18 11:19:38;;;;;;;8.25;5.53;;;;;;;19.27;27.65;101799.19;4970513;28;20554;-83
2022/04/18 11:22:07;;;;;;;8.15;5.38;;;;;;;19.29;27.51;101792.09;4982876;28;20023;-83
2022/04/18 11:24:48;;;;;;;12.27;5.78;;;;;;;19.37;28.57;101802.25;4970742;28;20060;-83
2022/04/18 11:27:16;;;;;;;8.95;5.28;;;;;;;19.34;28.68;101794.50;4969852;28;20038;-83
2022/04/18 11:29:50;;;;;;;10.10;5.50;;;;;;;19.26;28.40;101794.84;4979680;28;20037;-83
2022/04/18 11:32:17;;;;;;;8.68;5.60;;;;;;;19.38;26.84;101790.78;4979906;28;20026;-83
2022/04/18 11:34:47;;;;;;;10.13;5.82;;;;;;;19.50;26.15;101792.94;4979886;28;20085;-83
2022/04/18 11:37:21;;;;;;;9.60;5.80;;;;;;;19.57;28.52;101786.47;4972067;28;20035;-83